Time;durP1;ratioP1;P1;durP2;ratioP2;P2;SDS_P1;SDS_P2;PMS_P1;PMS_P2;Temp;Humidity;BMP_temperature;BMP_pressure;BME280_temperature;BME280_humidity;BME280_pressure;Samples;Min_cycle;Max_cycle;Signal;HPM_P1;HPM_P2
2023/03/25 00:02:22;;;;;;;3.72;1.10;;;;;;;5.83;100.00;93406.59;5057679;28;20045;-62
2023/03/25 00:04:51;;;;;;;4.70;1.70;;;;;;;5.83;100.00;93404.66;5068610;28;20385;-63
2023/03/25 00:07:20;;;;;;;2.78;1.20;;;;;;;5.81;100.00;93390.66;5062840;28;20051;-63
2023/03/25 00:09:47;;;;;;;4.30;1.30;;;;;;;5.87;100.00;93383.63;5056326;28;20101;-63
2023/03/25 00:12:15;;;;;;;4.93;1.37;;;;;;;5.73;100.00;93392.63;5072278;28;20044;-62
2023/03/25 00:14:53;;;;;;;5.75;1.30;;;;;;;5.72;100.00;93398.50;5059639;28;20049;-62
2023/03/25 00:17:21;;;;;;;4.55;1.50;;;;;;;5.69;100.00;93405.50;5072504;28;20042;-62
2023/03/25 00:19:49;;;;;;;4.07;1.38;;;;;;;5.66;100.00;93414.47;5072405;28;20098;-64
2023/03/25 00:22:17;;;;;;;5.05;1.30;;;;;;;5.68;100.00;93420.28;5072365;28;20477;-62
2023/03/25 00:24:44;;;;;;;3.67;1.50;;;;;;;5.68;100.00;93423.00;5072422;28;20036;-62
2023/03/25 00:27:13;;;;;;;3.63;1.50;;;;;;;5.63;100.00;93415.25;5070127;28;20044;-62
2023/03/25 00:29:41;;;;;;;5.28;1.70;;;;;;;5.56;100.00;93416.06;5059850;28;20642;-63
2023/03/25 00:32:08;;;;;;;4.82;1.50;;;;;;;5.53;100.00;93425.03;5061932;28;20072;-62
2023/03/25 00:34:40;;;;;;;3.95;1.40;;;;;;;5.53;100.00;93411.44;5069480;28;20040;-63
2023/03/25 00:37:08;;;;;;;3.43;1.50;;;;;;;5.56;100.00;93413.34;5058180;28;20049;-62
2023/03/25 00:39:36;;;;;;;5.22;1.50;;;;;;;5.55;100.00;93416.44;5068610;28;20036;-63
2023/03/25 00:42:03;;;;;;;7.05;1.90;;;;;;;5.62;100.00;93415.66;5057316;28;20040;-64
2023/03/25 00:44:31;;;;;;;3.05;1.38;;;;;;;5.68;100.00;93405.91;5058536;28;20043;-62
2023/03/25 00:46:58;;;;;;;5.18;1.25;;;;;;;5.70;100.00;93392.69;5059021;28;20561;-63
2023/03/25 00:49:27;;;;;;;5.80;1.60;;;;;;;5.84;100.00;93402.72;5065066;28;20229;-62
2023/03/25 00:51:57;;;;;;;4.18;1.30;;;;;;;5.85;100.00;93402.31;5069635;28;20041;-63
2023/03/25 00:54:24;;;;;;;2.90;1.30;;;;;;;5.86;100.00;93403.09;5063326;28;21584;-62
2023/03/25 00:56:52;;;;;;;6.55;1.73;;;;;;;5.84;100.00;93391.81;5055527;28;20043;-63
2023/03/25 00:59:18;;;;;;;4.95;1.45;;;;;;;5.83;100.00;93384.81;5070373;28;20048;-62
2023/03/25 01:01:45;;;;;;;3.23;0.90;;;;;;;5.84;100.00;93373.53;5071832;28;20044;-63
2023/03/25 01:04:12;;;;;;;3.75;1.65;;;;;;;5.83;100.00;93365.75;5103822;28;20044;-62
2023/03/25 01:06:42;;;;;;;5.05;1.40;;;;;;;5.79;100.00;93363.84;5063934;28;20029;-62
2023/03/25 01:09:12;;;;;;;6.75;1.30;;;;;;;5.83;100.00;93354.88;5066941;28;20396;-62
2023/03/25 01:11:41;;;;;;;5.20;1.80;;;;;;;5.78;100.00;93356.06;5064565;28;20073;-63
2023/03/25 01:14:13;;;;;;;6.10;1.10;;;;;;;5.76;100.00;93345.56;5065075;28;20393;-62
2023/03/25 01:16:41;;;;;;;7.25;1.33;;;;;;;5.77;100.00;93349.06;5062473;28;20041;-63
2023/03/25 01:19:09;;;;;;;6.20;1.85;;;;;;;5.82;100.00;93359.53;5052881;28;20049;-62
2023/03/25 01:21:36;;;;;;;6.10;1.65;;;;;;;5.75;100.00;93357.63;5071601;28;20395;-64
2023/03/25 01:24:04;;;;;;;4.72;1.20;;;;;;;5.67;100.00;93380.63;5057429;28;20385;-62
2023/03/25 01:26:30;;;;;;;5.80;1.77;;;;;;;5.69;100.00;93388.38;5071457;28;20469;-63
2023/03/25 01:28:57;;;;;;;6.68;2.05;;;;;;;5.70;100.00;93387.22;5056264;28;20470;-65
2023/03/25 01:31:28;;;;;;;6.50;1.80;;;;;;;5.67;100.00;93377.13;5102686;28;20615;-62
2023/03/25 01:33:57;;;;;;;5.38;1.35;;;;;;;5.57;100.00;93365.13;5071508;28;20047;-64
2023/03/25 01:36:28;;;;;;;6.25;1.60;;;;;;;5.60;100.00;93361.63;5070512;28;20113;-62
2023/03/25 01:38:57;;;;;;;5.53;1.10;;;;;;;5.55;100.00;93357.38;5064049;28;20032;-62
2023/03/25 01:41:25;;;;;;;4.90;1.50;;;;;;;5.50;100.00;93357.00;5070418;28;20719;-65
2023/03/25 01:44:03;;;;;;;3.60;1.38;;;;;;;5.40;100.00;93355.88;5070988;28;20036;-62
2023/03/25 01:46:29;;;;;;;4.15;1.42;;;;;;;5.58;100.00;93345.66;5058683;28;20149;-62
2023/03/25 01:49:00;;;;;;;6.38;1.60;;;;;;;5.63;100.00;93344.47;5070384;28;20053;-62
2023/03/25 01:51:30;;;;;;;3.67;1.40;;;;;;;5.58;100.00;93353.06;5069398;28;20402;-64
2023/03/25 01:53:57;;;;;;;5.85;1.70;;;;;;;5.63;100.00;93343.72;5069471;28;20036;-63
2023/03/25 01:56:37;;;;;;;7.30;1.70;;;;;;;5.64;100.00;93340.59;5070014;28;21578;-62
2023/03/25 01:59:07;;;;;;;5.20;1.33;;;;;;;5.65;100.00;93338.63;5057116;28;20055;-63
2023/03/25 02:01:35;;;;;;;4.60;1.58;;;;;;;5.70;100.00;93339.00;5070264;28;20033;-62
2023/03/25 02:04:08;;;;;;;5.10;1.43;;;;;;;5.70;100.00;93335.50;5060898;28;20043;-62
2023/03/25 02:06:43;;;;;;;5.72;1.35;;;;;;;5.76;100.00;93347.53;5070721;28;20037;-62
2023/03/25 02:09:12;;;;;;;5.25;1.48;;;;;;;5.78;100.00;93348.66;5070173;28;20047;-62
2023/03/25 02:11:39;;;;;;;4.40;1.48;;;;;;;5.82;100.00;93329.59;5069407;28;20043;-63
2023/03/25 02:14:11;;;;;;;4.65;1.30;;;;;;;5.98;100.00;93331.84;5070098;28;20415;-62
2023/03/25 02:16:52;;;;;;;4.53;1.43;;;;;;;6.02;100.00;93329.88;5070285;28;20039;-62
2023/03/25 02:19:26;;;;;;;4.10;1.30;;;;;;;6.05;100.00;93331.00;5069553;28;20056;-62
2023/03/25 02:22:14;;;;;;;5.95;1.38;;;;;;;6.07;100.00;93326.69;5069261;28;20045;-62
2023/03/25 02:24:56;;;;;;;3.85;1.27;;;;;;;6.10;100.00;93323.19;5049568;28;21176;-62
2023/03/25 02:27:44;;;;;;;3.42;1.45;;;;;;;6.15;100.00;93327.44;5066862;28;20039;-62
2023/03/25 02:30:39;;;;;;;6.27;1.30;;;;;;;6.15;100.00;93332.88;5055577;28;20090;-62
2023/03/25 02:33:27;;;;;;;3.58;1.13;;;;;;;6.15;100.00;93336.38;5058269;28;20044;-62
2023/03/25 02:36:21;;;;;;;5.45;1.63;;;;;;;6.15;100.00;93341.03;5068698;28;20113;-62
2023/03/25 02:38:52;;;;;;;4.78;1.45;;;;;;;6.15;100.00;93351.94;5056935;28;20037;-62
2023/03/25 02:41:49;;;;;;;4.43;1.20;;;;;;;6.14;100.00;93344.97;5056552;28;20397;-64
2023/03/25 02:44:31;;;;;;;7.87;1.63;;;;;;;6.19;100.00;93350.72;5068937;28;20041;-63
2023/03/25 02:47:03;;;;;;;5.53;1.70;;;;;;;6.22;100.00;93349.19;5057668;28;20094;-67
2023/03/25 02:49:32;;;;;;;6.07;1.63;;;;;;;6.19;100.00;93374.50;5067747;28;20216;-64
2023/03/25 02:52:26;;;;;;;5.93;1.27;;;;;;;6.11;100.00;93403.72;5057624;28;20033;-61
2023/03/25 02:54:56;;;;;;;4.53;1.38;;;;;;;5.97;100.00;93425.59;5057882;28;20052;-64
2023/03/25 02:57:27;;;;;;;7.37;1.40;;;;;;;5.62;100.00;93432.00;5055643;28;20043;-64
2023/03/25 02:59:56;;;;;;;4.25;1.23;;;;;;;5.55;100.00;93451.84;5061246;28;20041;-64
2023/03/25 03:02:26;;;;;;;6.28;1.40;;;;;;;5.36;100.00;93428.59;5064534;28;20035;-64
2023/03/25 03:04:55;;;;;;;4.72;1.38;;;;;;;5.30;100.00;93416.56;5067901;28;20488;-61
2023/03/25 03:07:26;;;;;;;4.95;1.27;;;;;;;5.10;100.00;93421.66;5068829;28;20033;-63
2023/03/25 03:10:07;;;;;;;4.23;1.30;;;;;;;5.10;100.00;93433.31;5062488;28;20147;-62
2023/03/25 03:13:09;;;;;;;3.85;1.08;;;;;;;5.16;100.00;93445.34;5048542;28;20831;-62
2023/03/25 03:16:00;;;;;;;3.15;1.27;;;;;;;5.20;100.00;93435.22;5067541;28;20477;-63
2023/03/25 03:18:33;;;;;;;3.30;0.80;;;;;;;5.07;100.00;93427.88;5067558;28;20412;-62
2023/03/25 03:21:45;;;;;;;3.95;1.02;;;;;;;5.12;100.00;93436.41;5057451;28;20044;-62
2023/03/25 03:24:19;;;;;;;3.20;1.10;;;;;;;4.99;100.00;93433.34;5024419;28;20045;-62
2023/03/25 03:26:55;;;;;;;3.80;0.80;;;;;;;4.99;100.00;93421.72;5059881;28;20034;-63
2023/03/25 03:29:26;;;;;;;3.67;1.23;;;;;;;5.01;100.00;93405.78;5069051;28;20040;-63
2023/03/25 03:32:00;;;;;;;2.85;1.08;;;;;;;5.11;100.00;93406.88;5056827;28;20039;-62
2023/03/25 03:34:48;;;;;;;3.15;1.40;;;;;;;5.02;100.00;93407.31;5056223;28;20910;-63
2023/03/25 03:37:25;;;;;;;3.77;1.00;;;;;;;5.06;100.00;93408.06;5053579;28;20098;-63
2023/03/25 03:39:54;;;;;;;2.70;0.93;;;;;;;5.04;100.00;93401.47;5079797;28;20355;-63
2023/03/25 03:42:36;;;;;;;3.83;1.10;;;;;;;4.85;100.00;93400.75;5054000;28;20037;-62
2023/03/25 03:45:11;;;;;;;4.25;0.90;;;;;;;4.90;100.00;93397.63;5057775;28;20078;-62
2023/03/25 03:47:41;;;;;;;4.85;1.25;;;;;;;4.93;100.00;93388.69;5068969;28;20306;-64
2023/03/25 03:50:17;;;;;;;2.37;1.00;;;;;;;4.89;100.00;93368.09;5071622;28;20042;-62
2023/03/25 03:52:51;;;;;;;2.38;1.10;;;;;;;4.83;100.00;93385.97;5071851;28;20041;-62
2023/03/25 03:55:28;;;;;;;2.45;1.30;;;;;;;4.91;100.00;93372.00;5068881;28;20101;-62
2023/03/25 03:57:59;;;;;;;2.85;1.08;;;;;;;4.93;100.00;93366.16;5055707;28;20085;-63
2023/03/25 04:00:43;;;;;;;2.72;1.30;;;;;;;4.90;100.00;93389.47;5068386;28;20066;-62
2023/03/25 04:03:22;;;;;;;3.00;1.00;;;;;;;4.88;100.00;93399.97;5065760;28;20491;-63
2023/03/25 04:06:06;;;;;;;2.53;0.90;;;;;;;4.83;100.00;93397.66;5067664;28;20043;-62
2023/03/25 04:08:41;;;;;;;3.25;1.55;;;;;;;4.79;100.00;93402.31;5067708;28;21559;-62
2023/03/25 04:11:17;;;;;;;2.30;1.00;;;;;;;4.78;100.00;93401.53;5068138;28;20053;-64
2023/03/25 04:13:48;;;;;;;3.25;1.30;;;;;;;4.73;100.00;93415.53;5069030;28;20050;-64
2023/03/25 04:16:15;;;;;;;2.23;1.00;;;;;;;4.66;100.00;93418.25;5068447;28;20049;-61
2023/03/25 04:18:42;;;;;;;2.25;0.90;;;;;;;4.56;100.00;93411.66;5068566;28;20427;-63
2023/03/25 04:21:09;;;;;;;2.88;1.45;;;;;;;4.54;100.00;93413.97;5054089;28;20599;-61
2023/03/25 04:23:36;;;;;;;3.25;1.42;;;;;;;4.58;100.00;93420.19;5055700;28;20101;-62
2023/03/25 04:26:03;;;;;;;2.45;1.10;;;;;;;4.51;100.00;93422.91;5054622;28;20082;-61
2023/03/25 04:28:30;;;;;;;2.53;1.00;;;;;;;4.44;100.00;93419.44;5054323;28;20033;-62
2023/03/25 04:30:59;;;;;;;2.38;0.80;;;;;;;4.38;100.00;93424.47;5056396;28;20111;-62
2023/03/25 04:33:30;;;;;;;2.30;1.05;;;;;;;4.30;100.00;93434.53;5062723;28;20673;-62
2023/03/25 04:36:00;;;;;;;3.42;1.10;;;;;;;4.19;100.00;93431.06;5049049;28;20045;-62
2023/03/25 04:38:28;;;;;;;3.38;1.35;;;;;;;4.14;100.00;93437.63;5074427;28;20774;-61
2023/03/25 04:40:54;;;;;;;3.53;1.23;;;;;;;4.15;100.00;93460.94;5068652;28;20047;-62
2023/03/25 04:43:21;;;;;;;2.70;1.00;;;;;;;4.11;100.00;93460.16;5054709;28;20033;-61
2023/03/25 04:45:52;;;;;;;3.45;1.20;;;;;;;4.05;100.00;93453.53;5053538;28;20032;-61
2023/03/25 04:48:28;;;;;;;3.38;1.00;;;;;;;4.03;100.00;93447.72;5067986;28;20040;-61
2023/03/25 04:51:00;;;;;;;3.72;1.00;;;;;;;3.96;100.00;93444.97;5062502;28;20039;-62
2023/03/25 04:53:27;;;;;;;3.87;1.00;;;;;;;3.97;100.00;93435.69;5071355;28;20695;-63
2023/03/25 04:55:54;;;;;;;2.90;0.88;;;;;;;3.96;100.00;93434.13;5070995;28;20028;-61
2023/03/25 04:58:21;;;;;;;4.65;1.35;;;;;;;3.87;100.00;93429.06;5059809;28;20041;-61
2023/03/25 05:00:50;;;;;;;3.83;1.45;;;;;;;3.79;100.00;93424.78;5056963;28;20447;-63
2023/03/25 05:03:23;;;;;;;3.92;1.30;;;;;;;3.79;100.00;93416.66;5064022;28;20504;-62
2023/03/25 05:05:51;;;;;;;3.00;1.30;;;;;;;3.77;100.00;93421.69;5071964;28;20482;-61
2023/03/25 05:08:20;;;;;;;4.53;1.30;;;;;;;3.70;100.00;93435.22;5071110;28;20040;-62
2023/03/25 05:10:48;;;;;;;2.17;0.80;;;;;;;3.67;100.00;93438.72;5058601;28;20052;-61
2023/03/25 05:13:14;;;;;;;3.20;0.98;;;;;;;3.69;100.00;93439.09;5067994;28;20037;-63
2023/03/25 05:15:42;;;;;;;3.05;1.45;;;;;;;3.71;100.00;93434.84;5051496;28;20482;-61
2023/03/25 05:18:13;;;;;;;2.70;1.20;;;;;;;3.71;100.00;93442.97;5063885;28;20401;-62
2023/03/25 05:20:42;;;;;;;2.85;1.13;;;;;;;3.65;100.00;93452.66;5061068;28;20491;-62
2023/03/25 05:23:16;;;;;;;2.63;0.98;;;;;;;3.68;100.00;93453.81;5067847;28;20040;-64
2023/03/25 05:25:49;;;;;;;3.22;1.02;;;;;;;3.66;100.00;93456.91;5062719;28;20036;-62
2023/03/25 05:28:17;;;;;;;3.20;1.20;;;;;;;3.81;100.00;93460.47;5054025;28;20325;-63
2023/03/25 05:30:46;;;;;;;3.50;0.90;;;;;;;3.92;100.00;93468.63;5062346;28;20032;-63
2023/03/25 05:33:15;;;;;;;4.50;1.40;;;;;;;3.99;100.00;93476.78;5055561;28;20041;-64
2023/03/25 05:35:43;;;;;;;3.75;1.20;;;;;;;3.98;100.00;93481.47;5071472;28;20039;-62
2023/03/25 05:38:11;;;;;;;3.17;0.90;;;;;;;3.96;100.00;93486.50;5063310;28;20040;-63
2023/03/25 05:40:39;;;;;;;5.70;1.48;;;;;;;3.97;100.00;93488.03;5073601;28;20050;-62
2023/03/25 05:43:06;;;;;;;4.30;1.07;;;;;;;3.94;100.00;93490.72;5070947;28;20045;-63
2023/03/25 05:45:34;;;;;;;4.38;1.00;;;;;;;3.97;100.00;93492.69;5057618;28;20046;-62
2023/03/25 05:48:02;;;;;;;2.97;1.45;;;;;;;4.03;100.00;93498.53;5070725;28;20461;-59
2023/03/25 05:50:29;;;;;;;4.55;1.10;;;;;;;4.09;100.00;93494.28;5075313;28;20036;-61
2023/03/25 05:52:56;;;;;;;6.00;1.90;;;;;;;4.06;100.00;93497.75;5063082;28;20048;-61
2023/03/25 05:55:23;;;;;;;2.87;0.80;;;;;;;4.04;100.00;93502.78;5065381;28;20044;-62
2023/03/25 05:57:50;;;;;;;4.07;0.90;;;;;;;3.93;100.00;93500.81;5071165;28;20058;-61
2023/03/25 06:00:20;;;;;;;4.40;1.40;;;;;;;3.84;100.00;93503.09;5057038;28;20049;-65
2023/03/25 06:02:49;;;;;;;3.55;1.00;;;;;;;3.81;100.00;93506.59;5058325;28;20040;-63
2023/03/25 06:05:16;;;;;;;3.65;1.40;;;;;;;3.86;100.00;93498.06;5055842;28;20102;-63
2023/03/25 06:07:46;;;;;;;3.43;1.27;;;;;;;4.07;100.00;93496.59;5070638;28;20036;-63
2023/03/25 06:10:16;;;;;;;2.90;1.10;;;;;;;4.00;100.00;93497.34;5070203;28;20097;-62
2023/03/25 06:12:45;;;;;;;3.13;1.35;;;;;;;4.31;100.00;93492.38;5070486;28;20028;-65
2023/03/25 06:15:16;;;;;;;4.00;1.17;;;;;;;4.37;100.00;93501.72;5063309;28;20053;-64
2023/03/25 06:17:45;;;;;;;2.92;1.10;;;;;;;4.37;100.00;93497.03;5064146;28;20038;-64
2023/03/25 06:20:18;;;;;;;3.07;0.93;;;;;;;4.32;100.00;93512.94;5050124;28;20496;-63
2023/03/25 06:22:45;;;;;;;2.55;1.02;;;;;;;4.09;100.00;93505.16;5064154;28;20041;-65
2023/03/25 06:25:16;;;;;;;3.10;0.95;;;;;;;3.95;100.00;93501.22;5062315;28;20049;-63
2023/03/25 06:27:44;;;;;;;2.13;1.00;;;;;;;3.89;100.00;93504.69;5065055;28;20036;-63
2023/03/25 06:30:13;;;;;;;2.22;0.90;;;;;;;3.89;100.00;93501.97;5069835;28;20431;-63
2023/03/25 06:32:40;;;;;;;2.27;0.80;;;;;;;3.95;100.00;93501.22;5069957;28;20381;-63
2023/03/25 06:35:09;;;;;;;2.45;0.80;;;;;;;3.83;100.00;93495.38;5063550;28;20057;-64
2023/03/25 06:37:36;;;;;;;2.90;1.10;;;;;;;3.98;100.00;93507.81;5048954;28;20044;-66
2023/03/25 06:40:05;;;;;;;1.98;0.70;;;;;;;4.02;100.00;93507.81;5069220;28;20036;-63
2023/03/25 06:42:31;;;;;;;3.05;1.40;;;;;;;4.12;100.00;93515.22;5057900;28;20043;-64
2023/03/25 06:44:58;;;;;;;1.67;0.70;;;;;;;3.98;100.00;93514.03;5055338;28;20031;-62
2023/03/25 06:47:25;;;;;;;1.70;0.80;;;;;;;4.06;100.00;93512.09;5069192;28;20922;-62
2023/03/25 06:49:53;;;;;;;3.25;1.20;;;;;;;4.14;100.00;93521.03;5057140;28;20045;-63
2023/03/25 06:52:20;;;;;;;2.83;1.05;;;;;;;4.38;100.00;93512.16;5077250;28;20112;-63
2023/03/25 06:54:46;;;;;;;3.55;1.45;;;;;;;4.56;100.00;93511.41;5066387;28;20390;-66
2023/03/25 06:57:13;;;;;;;6.33;1.80;;;;;;;4.39;100.00;93512.97;5049237;28;20420;-63
2023/03/25 06:59:40;;;;;;;2.20;1.00;;;;;;;4.39;100.00;93504.81;5062583;28;20041;-64
2023/03/25 07:02:06;;;;;;;5.45;2.03;;;;;;;4.46;100.00;93493.16;5064516;28;20047;-63
2023/03/25 07:04:33;;;;;;;6.00;2.63;;;;;;;4.50;100.00;93494.72;5069630;28;20457;-63
2023/03/25 07:07:00;;;;;;;2.75;1.40;;;;;;;4.65;100.00;93492.81;5063163;28;20045;-64
2023/03/25 07:09:27;;;;;;;2.67;1.30;;;;;;;4.50;100.00;93493.94;5061073;28;20097;-63
2023/03/25 07:11:53;;;;;;;4.05;1.30;;;;;;;4.41;100.00;93505.22;5069463;28;20044;-65
2023/03/25 07:14:20;;;;;;;2.65;1.10;;;;;;;4.51;100.00;93498.22;5067756;28;20377;-64
2023/03/25 07:16:47;;;;;;;2.70;1.13;;;;;;;4.89;100.00;93496.69;5069505;28;20043;-63
2023/03/25 07:19:14;;;;;;;2.85;1.80;;;;;;;5.08;100.00;93506.38;5068431;28;20055;-65
2023/03/25 07:21:41;;;;;;;3.67;1.53;;;;;;;6.16;100.00;93495.19;5063607;28;20135;-64
2023/03/25 07:24:07;;;;;;;2.90;1.20;;;;;;;6.38;100.00;93506.72;5060450;28;20048;-64
2023/03/25 07:26:34;;;;;;;2.80;1.55;;;;;;;5.53;100.00;93495.81;5051124;28;20470;-65
2023/03/25 07:29:02;;;;;;;2.13;1.08;;;;;;;5.32;100.00;93504.00;5059182;28;20047;-61
2023/03/25 07:31:29;;;;;;;3.63;1.45;;;;;;;5.45;100.00;93496.19;5067640;28;20036;-63
2023/03/25 07:33:58;;;;;;;2.70;1.40;;;;;;;5.61;100.00;93496.53;5058715;28;20041;-64
2023/03/25 07:36:25;;;;;;;3.20;1.15;;;;;;;6.00;100.00;93480.06;5065642;28;20101;-64
2023/03/25 07:38:52;;;;;;;2.65;1.30;;;;;;;6.67;100.00;93482.00;5062772;28;20059;-64
2023/03/25 07:41:22;;;;;;;2.10;1.08;;;;;;;6.68;100.00;93478.88;5068632;28;20037;-63
2023/03/25 07:43:49;;;;;;;2.67;1.10;;;;;;;6.37;100.00;93483.38;5101524;28;20041;-63
2023/03/25 07:46:16;;;;;;;3.63;1.00;;;;;;;6.06;100.00;93485.88;5067711;28;20060;-66
2023/03/25 07:48:42;;;;;;;3.55;1.42;;;;;;;6.05;100.00;93487.03;5056447;28;20033;-65
2023/03/25 07:51:09;;;;;;;4.70;1.65;;;;;;;5.78;100.00;93495.69;5079942;28;20446;-64
2023/03/25 07:53:37;;;;;;;3.38;1.50;;;;;;;5.64;100.00;93501.19;5069445;28;20046;-63
2023/03/25 07:56:05;;;;;;;3.75;1.70;;;;;;;5.38;100.00;93495.03;5055143;28;20454;-66
2023/03/25 07:58:32;;;;;;;3.57;1.27;;;;;;;5.38;100.00;93497.75;5055504;28;20433;-64
2023/03/25 08:00:59;;;;;;;3.30;1.60;;;;;;;5.52;100.00;93498.91;5068677;28;20051;-60
2023/03/25 08:03:27;;;;;;;4.13;1.95;;;;;;;5.43;100.00;93498.53;5063397;28;20051;-65
2023/03/25 08:05:54;;;;;;;6.60;3.10;;;;;;;5.64;100.00;93497.72;5048931;28;20071;-62
2023/03/25 08:08:21;;;;;;;5.30;2.10;;;;;;;5.37;100.00;93498.16;5066252;28;20405;-64
2023/03/25 08:10:49;;;;;;;5.43;1.37;;;;;;;6.28;100.00;93488.47;5068951;28;20041;-65
2023/03/25 08:13:16;;;;;;;2.72;1.38;;;;;;;6.30;100.00;93495.09;5058119;28;20033;-62
2023/03/25 08:15:43;;;;;;;5.07;1.80;;;;;;;6.39;100.00;93489.19;5063555;28;20047;-62
2023/03/25 08:18:09;;;;;;;4.78;1.42;;;;;;;7.27;100.00;93494.34;5066746;28;20036;-62
2023/03/25 08:20:36;;;;;;;2.97;1.35;;;;;;;7.19;100.00;93488.19;5053317;28;20037;-62
2023/03/25 08:23:03;;;;;;;4.23;1.17;;;;;;;6.73;100.00;93492.06;5055359;28;20050;-63
2023/03/25 08:25:30;;;;;;;3.67;1.08;;;;;;;6.69;100.00;93494.06;5069699;28;20036;-62
2023/03/25 08:27:57;;;;;;;4.32;1.50;;;;;;;6.48;100.00;93502.38;5065505;28;20037;-63
2023/03/25 08:30:24;;;;;;;3.85;1.80;;;;;;;6.26;100.00;93499.00;5064609;28;20435;-62
2023/03/25 08:32:53;;;;;;;5.35;1.48;;;;;;;6.39;100.00;93500.88;5072262;28;20036;-63
2023/03/25 08:35:23;;;;;;;3.23;1.50;;;;;;;6.28;100.00;93499.38;5071794;28;20495;-63
2023/03/25 08:37:50;;;;;;;4.03;1.55;;;;;;;6.12;100.00;93508.03;5061557;28;20382;-63
2023/03/25 08:40:18;;;;;;;3.83;1.50;;;;;;;5.76;100.00;93500.75;5077594;28;20062;-63
2023/03/25 08:42:45;;;;;;;3.03;1.50;;;;;;;5.65;100.00;93502.75;5057305;28;20043;-63
2023/03/25 08:45:14;;;;;;;3.38;1.25;;;;;;;5.57;100.00;93502.00;5071812;28;20044;-62
2023/03/25 08:47:42;;;;;;;5.30;1.87;;;;;;;5.55;100.00;93501.63;5070135;28;20044;-63
2023/03/25 08:50:09;;;;;;;3.67;1.80;;;;;;;5.62;100.00;93503.53;5073511;28;20074;-64
2023/03/25 08:52:36;;;;;;;5.22;2.58;;;;;;;5.60;100.00;93503.16;5070460;28;20040;-65
2023/03/25 08:55:06;;;;;;;8.20;3.58;;;;;;;6.02;100.00;93504.19;5059957;28;20036;-64
2023/03/25 08:57:36;;;;;;;7.00;2.08;;;;;;;5.98;100.00;93498.00;5072416;28;20511;-63
2023/03/25 09:00:13;;;;;;;3.00;1.00;;;;;;;6.14;100.00;93497.53;5056725;28;20052;-63
2023/03/25 09:02:41;;;;;;;4.05;1.20;;;;;;;6.09;100.00;93493.25;5059454;28;20047;-64
2023/03/25 09:05:09;;;;;;;5.00;1.40;;;;;;;5.83;100.00;93494.50;5070925;28;20493;-63
2023/03/25 09:07:37;;;;;;;5.88;2.30;;;;;;;6.03;100.00;93492.13;5088311;28;20500;-64
2023/03/25 09:10:06;;;;;;;3.78;1.98;;;;;;;5.69;100.00;93483.69;5071108;28;20044;-64
2023/03/25 09:12:32;;;;;;;2.90;1.20;;;;;;;5.94;100.00;93489.03;5071618;28;20051;-63
2023/03/25 09:14:59;;;;;;;4.68;1.73;;;;;;;6.05;100.00;93492.50;5061093;28;20044;-63
2023/03/25 09:17:26;;;;;;;7.40;2.60;;;;;;;6.31;100.00;93480.28;5067227;28;20032;-62
2023/03/25 09:19:52;;;;;;;4.45;1.60;;;;;;;6.05;100.00;93491.72;5071322;28;20036;-63
2023/03/25 09:22:21;;;;;;;6.18;2.05;;;;;;;6.00;100.00;93482.78;5055449;28;20033;-63
2023/03/25 09:24:48;;;;;;;3.23;1.43;;;;;;;6.26;100.00;93469.03;5071104;28;20045;-63
2023/03/25 09:27:14;;;;;;;2.70;1.30;;;;;;;7.34;100.00;93460.75;5070995;28;20408;-65
2023/03/25 09:29:41;;;;;;;2.70;1.20;;;;;;;8.32;100.00;93453.69;5071596;28;20384;-64
2023/03/25 09:32:08;;;;;;;2.35;1.23;;;;;;;7.82;100.00;93459.81;5070843;28;20542;-63
2023/03/25 09:34:35;;;;;;;1.90;1.00;;;;;;;8.19;100.00;93460.94;5053015;28;20500;-64
2023/03/25 09:37:02;;;;;;;2.20;1.27;;;;;;;8.58;100.00;93462.34;5061575;28;20286;-64
2023/03/25 09:39:28;;;;;;;1.88;0.80;;;;;;;8.45;100.00;93464.88;5080302;28;20041;-63
2023/03/25 09:42:14;;;;;;;1.88;0.90;;;;;;;8.01;100.00;93469.34;5069919;28;20125;-64
2023/03/25 09:44:57;;;;;;;2.03;0.90;;;;;;;7.65;100.00;93453.41;5070142;28;20665;-65
2023/03/25 09:47:28;;;;;;;1.80;0.80;;;;;;;7.08;100.00;93476.56;5068140;28;20409;-63
2023/03/25 09:49:58;;;;;;;1.67;0.73;;;;;;;7.15;100.00;93473.03;5070814;28;20054;-63
2023/03/25 09:52:31;;;;;;;3.10;1.05;;;;;;;7.57;100.00;93462.84;5065809;28;20967;-63
2023/03/25 09:55:03;;;;;;;1.90;1.05;;;;;;;7.78;100.00;93472.75;5070870;28;20490;-64
2023/03/25 09:57:32;;;;;;;1.80;0.80;;;;;;;10.77;100.00;93477.41;5069969;28;20900;-63
2023/03/25 10:00:05;;;;;;;1.85;1.00;;;;;;;12.70;84.00;93457.75;5070277;28;20037;-64
2023/03/25 10:03:04;;;;;;;1.87;0.80;;;;;;;12.28;82.90;93466.06;5043617;28;20349;-64
2023/03/25 10:05:54;;;;;;;1.80;0.98;;;;;;;14.62;68.20;93467.41;5041781;28;20266;-64
2023/03/25 10:08:43;;;;;;;1.67;0.65;;;;;;;12.66;67.41;93457.09;5059547;28;20059;-65
2023/03/25 10:11:16;;;;;;;1.73;0.60;;;;;;;11.33;73.15;93474.50;5057177;28;20044;-64
2023/03/25 10:13:48;;;;;;;1.80;0.93;;;;;;;10.97;82.62;93472.63;5055934;28;20041;-63
2023/03/25 10:16:36;;;;;;;1.50;0.70;;;;;;;10.15;84.08;93475.19;5057159;28;20052;-64
2023/03/25 10:19:17;;;;;;;1.85;0.70;;;;;;;8.94;92.59;93481.72;5056370;28;20113;-66
2023/03/25 10:21:56;;;;;;;1.70;0.80;;;;;;;8.93;100.00;93482.91;5059439;28;20045;-63
2023/03/25 10:24:31;;;;;;;2.40;1.02;;;;;;;8.23;100.00;93486.25;5061842;28;20033;-63
2023/03/25 10:27:00;;;;;;;1.80;1.02;;;;;;;8.33;100.00;93493.53;5050394;28;20374;-62
2023/03/25 10:29:40;;;;;;;1.40;0.50;;;;;;;8.24;100.00;93490.53;5066491;28;20043;-62
2023/03/25 10:32:16;;;;;;;1.80;0.80;;;;;;;9.15;97.99;93496.22;5057224;28;20448;-62
2023/03/25 10:34:48;;;;;;;3.65;1.98;;;;;;;8.83;97.26;93496.75;5069165;28;20093;-65
2023/03/25 10:37:24;;;;;;;2.38;1.17;;;;;;;8.63;97.74;93499.38;5069409;28;20062;-62
2023/03/25 10:39:51;;;;;;;1.80;1.00;;;;;;;8.91;99.26;93500.91;5081002;28;20036;-62
2023/03/25 10:42:30;;;;;;;2.43;0.90;;;;;;;8.35;100.00;93493.09;5069055;28;20428;-67
2023/03/25 10:44:57;;;;;;;2.58;0.80;;;;;;;9.13;97.17;93515.03;5050028;28;20041;-64
2023/03/25 10:47:32;;;;;;;1.60;0.90;;;;;;;11.90;79.12;93496.22;5060761;28;20044;-63
2023/03/25 10:49:59;;;;;;;1.90;0.90;;;;;;;11.17;81.10;93491.00;5070180;28;20679;-64
2023/03/25 10:52:26;;;;;;;2.05;0.70;;;;;;;11.04;79.13;93496.38;5055852;28;20494;-65
2023/03/25 10:54:55;;;;;;;1.90;1.00;;;;;;;9.51;86.72;93488.16;5055870;28;20032;-62
2023/03/25 10:57:28;;;;;;;2.00;0.95;;;;;;;9.04;93.83;93503.88;5049203;28;20356;-61
2023/03/25 11:00:15;;;;;;;2.08;1.08;;;;;;;8.19;94.76;93508.16;5063032;28;20033;-64
2023/03/25 11:02:42;;;;;;;2.75;0.85;;;;;;;8.42;94.75;93509.44;5049708;28;20371;-63
2023/03/25 11:05:11;;;;;;;1.83;1.00;;;;;;;8.46;96.08;93501.19;5068813;28;20040;-64
2023/03/25 11:07:41;;;;;;;5.00;1.70;;;;;;;9.07;93.75;93498.31;5055941;28;20094;-62
2023/03/25 11:10:14;;;;;;;1.70;0.88;;;;;;;8.68;92.59;93507.91;5067236;28;20044;-63
2023/03/25 11:12:46;;;;;;;1.80;1.20;;;;;;;8.98;92.30;93498.09;5051402;28;20109;-63
2023/03/25 11:15:23;;;;;;;2.28;0.82;;;;;;;8.74;92.67;93497.28;5050176;28;20053;-64
2023/03/25 11:17:58;;;;;;;3.85;1.10;;;;;;;9.43;92.77;93496.94;5062598;28;20047;-66
2023/03/25 11:20:29;;;;;;;2.43;1.00;;;;;;;8.93;90.36;93506.75;5054784;28;21494;-65
2023/03/25 11:23:05;;;;;;;2.25;0.80;;;;;;;9.04;88.36;93493.69;5069466;28;20047;-64
2023/03/25 11:25:40;;;;;;;2.08;1.00;;;;;;;9.11;89.67;93488.06;5052975;28;20694;-64
2023/03/25 11:28:16;;;;;;;1.90;0.98;;;;;;;9.21;93.30;93486.34;5055969;28;20049;-63
2023/03/25 11:31:22;;;;;;;2.35;1.10;;;;;;;9.29;91.94;93489.75;5055064;28;20039;-66
2023/03/25 11:34:11;;;;;;;2.07;0.80;;;;;;;9.86;91.47;93485.19;5053419;28;20688;-63
2023/03/25 11:36:45;;;;;;;3.05;0.90;;;;;;;11.74;75.90;93475.78;5068074;28;20875;-64
2023/03/25 11:39:18;;;;;;;2.30;0.93;;;;;;;10.76;77.71;93478.59;5074420;28;20040;-64
2023/03/25 11:41:45;;;;;;;2.33;0.85;;;;;;;10.26;78.75;93485.97;5053668;28;20037;-64
2023/03/25 11:44:41;;;;;;;2.50;0.80;;;;;;;10.88;78.67;93479.91;5047178;28;20047;-64
2023/03/25 11:47:10;;;;;;;2.10;0.70;;;;;;;10.17;79.35;93474.78;5051730;28;20044;-62
2023/03/25 11:49:40;;;;;;;3.53;0.90;;;;;;;10.09;79.70;93478.88;5068636;28;20393;-64
2023/03/25 11:52:13;;;;;;;2.30;1.17;;;;;;;10.38;76.19;93474.34;5070192;28;20099;-64
2023/03/25 11:54:41;;;;;;;2.60;0.90;;;;;;;11.02;73.50;93463.09;5057059;28;20451;-64